createdAt,value
2022-09-20T00:02:14.034Z,18.60
2022-09-20T00:04:44.074Z,22.07
2022-09-20T00:07:14.065Z,12.90
2022-09-20T00:09:44.045Z,14.50
2022-09-20T00:12:16.606Z,14.20
2022-09-20T00:14:46.591Z,15.07
2022-09-20T00:17:16.572Z,12.40
2022-09-20T00:19:46.547Z,17.93
2022-09-20T00:22:16.534Z,15.10
2022-09-20T00:24:49.091Z,16.73
2022-09-20T00:27:21.774Z,16.73
2022-09-20T00:29:51.757Z,15.70
2022-09-20T00:32:21.797Z,16.23
2022-09-20T00:35:16.140Z,19.27
2022-09-20T00:37:47.364Z,16.77
2022-09-20T00:40:22.496Z,12.50
2022-09-20T00:42:55.316Z,15.13
2022-09-20T00:45:28.036Z,13.90
2022-09-20T00:48:02.131Z,16.67
2022-09-20T00:50:43.426Z,16.00
2022-09-20T00:53:19.579Z,17.03
2022-09-20T00:55:54.575Z,13.53
2022-09-20T00:58:30.943Z,18.33
2022-09-20T01:01:02.318Z,15.13
2022-09-20T01:03:35.603Z,11.87
2022-09-20T01:06:11.146Z,20.90
2022-09-20T01:08:45.101Z,11.93
2022-09-20T01:11:15.122Z,17.63
2022-09-20T01:13:47.650Z,11.83
2022-09-20T01:16:19.771Z,15.13
2022-09-20T01:18:52.315Z,11.50
2022-09-20T01:21:23.678Z,10.93
2022-09-20T01:24:09.410Z,12.23
2022-09-20T01:27:14.970Z,11.37
2022-09-20T01:30:07.465Z,10.40
2022-09-20T01:32:51.384Z,12.03
2022-09-20T01:35:26.311Z,15.00
2022-09-20T01:38:35.197Z,18.27
2022-09-20T01:41:14.913Z,13.33
2022-09-20T01:43:54.624Z,13.20
2022-09-20T01:46:33.858Z,17.53
2022-09-20T01:49:22.773Z,10.50
2022-09-20T01:52:42.485Z,13.90
2022-09-20T01:55:52.956Z,7.57
2022-09-20T01:59:24.089Z,12.97
2022-09-20T02:02:41.812Z,11.93
2022-09-20T02:05:49.694Z,10.23
2022-09-20T02:09:05.854Z,11.20
2022-09-20T02:11:53.847Z,13.70
2022-09-20T02:14:40.287Z,12.13
2022-09-20T02:17:17.305Z,16.80
2022-09-20T02:20:08.451Z,9.87
2022-09-20T02:23:11.021Z,10.20
2022-09-20T02:26:12.119Z,16.23
2022-09-20T02:29:04.902Z,12.87
2022-09-20T02:32:03.174Z,14.97
2022-09-20T02:35:23.112Z,16.03
2022-09-20T02:38:08.380Z,9.10
2022-09-20T02:41:14.182Z,10.70
2022-09-20T02:44:03.665Z,9.17
2022-09-20T02:46:43.888Z,10.90
2022-09-20T02:49:25.055Z,14.40
2022-09-20T02:52:08.384Z,8.67
2022-09-20T02:54:56.724Z,11.80
2022-09-20T02:57:43.964Z,8.50
2022-09-20T03:00:23.785Z,10.53
2022-09-20T03:03:11.511Z,10.60
2022-09-20T03:06:02.955Z,9.63
2022-09-20T03:08:52.046Z,9.37
2022-09-20T03:11:34.364Z,11.60
2022-09-20T03:14:22.990Z,8.37
2022-09-20T03:17:13.400Z,10.83
2022-09-20T03:20:01.107Z,10.43
2022-09-20T03:22:48.097Z,11.37
2022-09-20T03:25:42.487Z,15.83
2022-09-20T03:28:29.708Z,6.93
2022-09-20T03:31:14.582Z,9.57
2022-09-20T03:33:59.628Z,7.10
2022-09-20T03:36:56.309Z,8.60
2022-09-20T03:40:06.230Z,9.70
2022-09-20T03:42:49.833Z,11.20
2022-09-20T03:45:57.911Z,13.03
2022-09-20T03:49:10.231Z,12.03
2022-09-20T03:51:50.729Z,14.10
2022-09-20T03:54:57.442Z,11.10
2022-09-20T03:57:55.478Z,7.73
2022-09-20T04:00:34.048Z,10.83
2022-09-20T04:03:31.501Z,12.17
2022-09-20T04:06:30.305Z,11.30
2022-09-20T04:09:37.558Z,10.57
2022-09-20T04:12:26.962Z,11.27
2022-09-20T04:15:21.581Z,11.93
2022-09-20T04:18:03.666Z,15.17
2022-09-20T04:20:46.586Z,12.90
2022-09-20T04:23:35.419Z,10.13
2022-09-20T04:26:06.799Z,12.73
2022-09-20T04:28:46.021Z,14.00
2022-09-20T04:31:40.063Z,10.63
2022-09-20T04:34:24.281Z,7.80
2022-09-20T04:36:58.962Z,8.90
2022-09-20T04:39:45.961Z,11.37
2022-09-20T04:42:56.825Z,10.57
2022-09-20T04:46:04.775Z,10.13
2022-09-20T04:49:21.058Z,17.00
2022-09-20T04:52:41.635Z,10.30
2022-09-20T04:55:56.976Z,16.00
2022-09-20T04:58:42.614Z,9.17
2022-09-20T05:02:07.225Z,17.73
2022-09-20T05:05:31.451Z,13.30
2022-09-20T05:08:40.693Z,9.40
2022-09-20T05:11:47.219Z,8.07
2022-09-20T05:15:11.052Z,9.07
2022-09-20T05:18:34.745Z,8.03
2022-09-20T05:21:48.367Z,14.10
2022-09-20T05:24:39.393Z,9.77
2022-09-20T05:27:36.390Z,8.03
2022-09-20T05:30:14.807Z,15.43
2022-09-20T05:32:56.347Z,11.03
2022-09-20T05:35:35.388Z,12.40
2022-09-20T05:38:17.786Z,11.30
2022-09-20T05:41:09.358Z,11.70
2022-09-20T05:43:55.477Z,15.57
2022-09-20T05:47:01.666Z,18.57
2022-09-20T05:49:54.123Z,20.43
2022-09-20T05:52:43.176Z,14.90
2022-09-20T05:55:51.997Z,14.73
2022-09-20T05:59:03.797Z,12.23
2022-09-20T06:01:42.514Z,28.17
2022-09-20T06:04:24.097Z,22.93
2022-09-20T06:07:06.031Z,14.87
2022-09-20T06:10:02.966Z,16.70
2022-09-20T06:12:55.136Z,14.37
2022-09-20T06:15:37.019Z,18.50
2022-09-20T06:18:25.402Z,18.50
2022-09-20T06:21:13.715Z,12.70
2022-09-20T06:23:43.899Z,10.60
2022-09-20T06:26:23.325Z,12.47
2022-09-20T06:29:05.077Z,16.60
2022-09-20T06:31:35.404Z,10.37
2022-09-20T06:34:11.498Z,16.07
2022-09-20T06:37:02.788Z,7.90
2022-09-20T06:39:54.445Z,14.07
2022-09-20T06:42:27.173Z,8.47
2022-09-20T06:45:00.485Z,13.10
2022-09-20T06:47:30.393Z,12.17
2022-09-20T06:50:00.391Z,14.53
2022-09-20T06:52:30.642Z,10.00
2022-09-20T06:55:00.616Z,12.50
2022-09-20T06:57:36.495Z,15.60
2022-09-20T07:00:12.711Z,12.00
2022-09-20T07:02:42.712Z,12.70
2022-09-20T07:05:17.834Z,12.43
2022-09-20T07:07:47.907Z,10.93
2022-09-20T07:10:18.184Z,16.93
2022-09-20T07:12:48.637Z,7.80
2022-09-20T07:15:23.039Z,7.67
2022-09-20T07:17:53.105Z,10.70
2022-09-20T07:20:23.262Z,6.80
2022-09-20T07:22:54.229Z,9.03
2022-09-20T07:25:25.660Z,9.30
2022-09-20T07:27:55.695Z,6.33
2022-09-20T07:30:28.557Z,9.43
2022-09-20T07:32:58.435Z,9.27
2022-09-20T07:35:28.678Z,9.33
2022-09-20T07:38:01.971Z,8.20
2022-09-20T07:40:32.259Z,11.73
2022-09-20T07:43:02.209Z,9.63
2022-09-20T07:45:35.636Z,13.50
2022-09-20T07:48:07.149Z,13.73
2022-09-20T07:50:37.410Z,10.00
2022-09-20T07:53:07.433Z,9.30
2022-09-20T07:55:37.368Z,9.87
2022-09-20T07:58:07.301Z,11.00
2022-09-20T08:00:39.882Z,8.17
2022-09-20T08:03:09.766Z,14.57
2022-09-20T08:05:39.860Z,10.57
2022-09-20T08:08:09.861Z,10.30
2022-09-20T08:10:40.829Z,8.30
2022-09-20T08:16:10.464Z,8.70
2022-09-20T08:18:40.633Z,9.20
2022-09-20T08:21:13.424Z,9.13
2022-09-20T08:23:47.727Z,8.00
2022-09-20T08:26:22.002Z,9.23
2022-09-20T08:28:56.110Z,7.30
2022-09-20T08:31:35.455Z,9.03
2022-09-20T08:34:06.882Z,12.13
2022-09-20T08:36:41.258Z,6.77
2022-09-20T08:42:18.027Z,5.60
2022-09-20T08:44:58.139Z,9.50
2022-09-20T08:47:35.949Z,13.70
2022-09-20T08:50:11.585Z,11.07
2022-09-20T08:52:43.588Z,7.43
2022-09-20T08:55:19.953Z,6.37
2022-09-20T08:57:55.498Z,8.10
2022-09-20T09:00:30.673Z,6.63
2022-09-20T09:03:09.190Z,11.13
2022-09-20T09:05:46.450Z,8.80
2022-09-20T09:08:21.255Z,8.00
2022-09-20T09:10:56.873Z,5.97
2022-09-20T09:13:35.012Z,5.80
2022-09-20T09:16:14.943Z,8.10
2022-09-20T09:18:50.621Z,6.20
2022-09-20T09:21:23.930Z,9.30
2022-09-20T09:24:01.190Z,6.60
2022-09-20T09:26:38.915Z,4.23
2022-09-20T09:29:20.208Z,7.83
2022-09-20T09:31:54.571Z,5.40
2022-09-20T09:34:33.490Z,9.30
2022-09-20T09:37:03.645Z,8.40
2022-09-20T09:39:38.173Z,10.33
2022-09-20T09:42:24.692Z,10.30
2022-09-20T09:44:54.643Z,9.77
2022-09-20T09:47:31.406Z,7.80
2022-09-20T09:50:07.534Z,5.77
2022-09-20T09:52:39.952Z,10.60
2022-09-20T09:55:17.384Z,11.53
2022-09-20T09:57:58.426Z,7.77
2022-09-20T10:00:29.759Z,5.83
2022-09-20T10:03:31.457Z,8.93
2022-09-20T10:06:18.283Z,5.20
2022-09-20T10:09:12.761Z,6.10
2022-09-20T10:12:10.175Z,5.90
2022-09-20T10:15:02.542Z,9.77
2022-09-20T10:17:50.754Z,8.07
2022-09-20T10:20:57.576Z,4.73
2022-09-20T10:24:04.492Z,11.60
2022-09-20T10:27:01.097Z,6.40
2022-09-20T10:29:53.105Z,15.47
2022-09-20T10:32:45.946Z,5.70
2022-09-20T10:35:29.131Z,6.57
2022-09-20T10:38:19.788Z,11.33
2022-09-20T10:41:32.464Z,9.97
2022-09-20T10:44:41.463Z,6.50
2022-09-20T10:47:20.323Z,6.90
2022-09-20T10:50:05.008Z,7.37
2022-09-20T10:52:58.714Z,13.37
2022-09-20T10:55:42.586Z,7.60
2022-09-20T10:58:43.537Z,3.80
2022-09-20T11:01:24.101Z,7.97
2022-09-20T11:04:32.354Z,9.60
2022-09-20T11:07:14.482Z,6.67
2022-09-20T11:09:52.139Z,7.87
2022-09-20T11:12:32.422Z,8.73
2022-09-20T11:15:18.620Z,5.27
2022-09-20T11:18:01.367Z,7.33
2022-09-20T11:20:38.685Z,6.23
2022-09-20T11:23:17.130Z,6.70
2022-09-20T11:25:53.233Z,8.27
2022-09-20T11:28:31.545Z,5.27
2022-09-20T11:31:12.975Z,7.17
2022-09-20T11:33:52.317Z,4.33
2022-09-20T11:36:33.403Z,6.80
2022-09-20T11:39:13.871Z,9.83
2022-09-20T11:41:45.704Z,6.57
2022-09-20T11:44:22.033Z,6.03
2022-09-20T11:47:02.801Z,6.30
2022-09-20T11:49:44.042Z,7.60
2022-09-20T11:52:44.692Z,8.83
2022-09-20T11:55:45.558Z,7.17
2022-09-20T11:58:19.169Z,4.10
2022-09-20T12:00:54.392Z,5.60
2022-09-20T12:03:37.489Z,7.90
2022-09-20T12:06:22.950Z,7.70
2022-09-20T12:08:55.105Z,5.20
2022-09-20T12:11:35.551Z,4.67
2022-09-20T12:14:09.875Z,7.73
2022-09-20T12:16:44.691Z,7.03
2022-09-20T12:19:43.328Z,4.73
2022-09-20T12:22:31.529Z,3.50
2022-09-20T12:25:38.737Z,4.23
2022-09-20T12:28:18.141Z,6.23
2022-09-20T12:30:48.308Z,5.10
2022-09-20T12:33:25.177Z,6.80
2022-09-20T12:36:19.734Z,5.27
2022-09-20T12:39:08.041Z,4.33
2022-09-20T12:41:55.272Z,5.90
2022-09-20T12:44:34.937Z,6.80
2022-09-20T12:47:09.231Z,4.17
2022-09-20T12:49:57.176Z,3.17
2022-09-20T12:53:01.629Z,5.80
2022-09-20T12:55:46.198Z,5.37
2022-09-20T12:58:41.626Z,6.13
2022-09-20T13:01:34.641Z,5.10
2022-09-20T13:04:56.312Z,6.73
2022-09-20T13:07:59.394Z,6.53
2022-09-20T13:10:39.006Z,4.33
2022-09-20T13:13:29.810Z,7.67
2022-09-20T13:16:01.562Z,5.43
2022-09-20T13:18:32.539Z,5.90
2022-09-20T13:21:06.735Z,11.43
2022-09-20T13:23:51.561Z,10.57
2022-09-20T13:26:30.293Z,5.00
2022-09-20T13:29:01.841Z,8.03
2022-09-20T13:31:36.377Z,6.33
2022-09-20T13:34:33.168Z,4.73
2022-09-20T13:37:03.286Z,6.60
2022-09-20T13:39:41.323Z,5.90
2022-09-20T13:42:19.828Z,6.43
2022-09-20T13:44:51.715Z,7.80
2022-09-20T13:47:28.834Z,6.37
2022-09-20T13:50:04.781Z,3.23
2022-09-20T13:52:35.050Z,6.30
2022-09-20T13:55:34.358Z,7.67
2022-09-20T13:58:10.166Z,5.23
2022-09-20T14:00:49.910Z,7.33
2022-09-20T14:03:23.255Z,5.10
2022-09-20T14:05:57.653Z,6.50
2022-09-20T14:08:33.611Z,4.37
2022-09-20T14:11:16.032Z,6.30
2022-09-20T14:13:50.694Z,8.13
2022-09-20T14:16:23.021Z,5.93
2022-09-20T14:18:53.706Z,6.10
2022-09-20T14:21:27.657Z,8.03
2022-09-20T14:24:02.288Z,5.80
2022-09-20T14:26:37.217Z,7.17
2022-09-20T14:29:32.553Z,7.97
2022-09-20T14:32:09.730Z,8.30
2022-09-20T14:34:41.554Z,7.50
2022-09-20T14:37:18.648Z,11.30
2022-09-20T14:39:52.926Z,8.30
2022-09-20T14:42:34.306Z,7.47
2022-09-20T14:45:06.436Z,8.10
2022-09-20T14:47:42.269Z,5.63
2022-09-20T14:50:29.912Z,5.00
2022-09-20T14:53:26.953Z,7.07
2022-09-20T14:56:11.604Z,4.20
2022-09-20T14:59:21.898Z,4.80
2022-09-20T15:02:05.104Z,6.17
2022-09-20T15:04:38.018Z,9.63
2022-09-20T15:07:11.935Z,4.07
2022-09-20T15:09:42.126Z,6.33
2022-09-20T15:12:19.133Z,4.80
2022-09-20T15:14:52.357Z,6.43
2022-09-20T15:17:24.649Z,8.33
2022-09-20T15:19:54.660Z,5.53
2022-09-20T15:22:24.823Z,6.63
2022-09-20T15:24:54.740Z,4.00
2022-09-20T15:27:28.175Z,5.27
2022-09-20T15:30:01.052Z,10.93
2022-09-20T15:32:31.505Z,4.50
2022-09-20T15:35:01.662Z,7.60
2022-09-20T15:37:31.673Z,5.80
2022-09-20T15:40:02.245Z,5.80
2022-09-20T15:42:32.448Z,5.27
2022-09-20T15:45:04.956Z,4.87
2022-09-20T15:47:34.977Z,4.27
2022-09-20T15:50:06.613Z,6.50
2022-09-20T15:52:39.942Z,6.77
2022-09-20T15:55:12.181Z,4.30
2022-09-20T15:57:42.235Z,6.00
2022-09-20T16:00:17.829Z,7.00
2022-09-20T16:02:51.227Z,6.00
2022-09-20T16:05:21.889Z,5.90
2022-09-20T16:07:51.964Z,5.77
2022-09-20T16:10:22.118Z,6.30
2022-09-20T16:12:52.047Z,4.00
2022-09-20T16:15:24.578Z,3.90
2022-09-20T16:18:07.319Z,4.97
2022-09-20T16:20:37.298Z,5.27
2022-09-20T16:23:07.211Z,5.03
2022-09-20T16:25:37.188Z,4.77
2022-09-20T16:28:07.383Z,7.03
2022-09-20T16:30:39.987Z,4.27
2022-09-20T16:33:11.951Z,8.60
2022-09-20T16:35:41.855Z,7.07
2022-09-20T16:38:12.967Z,8.60
2022-09-20T16:40:42.914Z,3.97
2022-09-20T16:43:12.871Z,4.70
2022-09-20T16:45:45.493Z,4.80
2022-09-20T16:48:15.498Z,8.80
2022-09-20T16:50:47.462Z,14.63
2022-09-20T16:53:17.391Z,5.00
2022-09-20T16:55:47.701Z,4.13
2022-09-20T16:58:17.761Z,4.80
2022-09-20T17:00:50.422Z,3.47
2022-09-20T17:03:21.739Z,3.90
2022-09-20T17:05:51.812Z,8.53
2022-09-20T17:08:21.759Z,5.93
2022-09-20T17:10:52.350Z,5.70
2022-09-20T17:13:22.238Z,6.33
2022-09-20T17:16:03.897Z,5.87
2022-09-20T17:18:34.486Z,6.07
2022-09-20T17:21:09.717Z,6.20
2022-09-20T17:23:39.700Z,5.37
2022-09-20T17:26:15.025Z,3.60
2022-09-20T17:28:49.349Z,6.83
2022-09-20T17:31:25.339Z,4.77
2022-09-20T17:33:55.813Z,6.90
2022-09-20T17:36:26.964Z,5.73
2022-09-20T17:39:03.913Z,3.73
2022-09-20T17:41:37.403Z,3.97
2022-09-20T17:44:09.992Z,5.07
2022-09-20T17:46:44.489Z,5.57
2022-09-20T17:49:16.721Z,6.70
2022-09-20T17:51:50.399Z,6.70
2022-09-20T17:54:21.438Z,4.17
2022-09-20T17:56:55.860Z,7.07
2022-09-20T17:59:27.290Z,5.17
2022-09-20T18:01:59.855Z,7.70
2022-09-20T18:04:29.885Z,6.70
2022-09-20T18:07:01.719Z,11.40
2022-09-20T18:09:31.688Z,6.50
2022-09-20T18:12:01.725Z,11.20
2022-09-20T18:14:32.644Z,5.30
2022-09-20T18:17:05.396Z,8.50
2022-09-20T18:19:35.771Z,5.97
2022-09-20T18:22:06.975Z,9.53
2022-09-20T18:24:36.907Z,8.97
2022-09-20T18:27:07.199Z,7.43
2022-09-20T18:29:37.898Z,6.10
2022-09-20T18:32:11.063Z,14.43
2022-09-20T18:34:41.062Z,10.10
2022-09-20T18:37:14.545Z,8.43
2022-09-20T18:39:44.950Z,10.00
2022-09-20T18:42:14.870Z,11.03
2022-09-20T18:44:45.384Z,8.90
2022-09-20T18:47:19.261Z,8.93
2022-09-20T18:49:49.220Z,12.53
2022-09-20T18:52:24.157Z,11.30
2022-09-20T18:54:56.023Z,8.43
2022-09-20T18:57:26.906Z,8.20
2022-09-20T19:00:03.392Z,9.77
2022-09-20T19:03:10.427Z,10.60
2022-09-20T19:05:50.149Z,12.53
2022-09-20T19:08:34.448Z,15.40
2022-09-20T19:11:12.379Z,9.13
2022-09-20T19:13:52.191Z,9.03
2022-09-20T19:16:30.646Z,15.37
2022-09-20T19:19:24.340Z,11.43
2022-09-20T19:22:03.671Z,9.33
2022-09-20T19:24:56.966Z,10.07
2022-09-20T19:27:28.471Z,20.43
2022-09-20T19:29:59.762Z,16.60
2022-09-20T19:32:31.146Z,13.53
2022-09-20T19:35:05.154Z,14.33
2022-09-20T19:37:46.025Z,14.17
2022-09-20T19:40:35.727Z,13.30
2022-09-20T19:43:31.729Z,21.87
2022-09-20T19:46:14.874Z,14.33
2022-09-20T19:48:56.549Z,13.70
2022-09-20T19:51:29.799Z,14.37
2022-09-20T19:54:00.639Z,18.17
2022-09-20T19:56:38.972Z,12.30
2022-09-20T19:59:09.920Z,12.47
2022-09-20T20:01:41.662Z,21.03
2022-09-20T20:04:12.845Z,24.00
2022-09-20T20:07:02.034Z,23.77
2022-09-20T20:09:46.681Z,39.90
2022-09-20T20:12:25.685Z,99.90
2022-09-20T20:15:10.917Z,101.87
2022-09-20T20:17:56.137Z,55.53
2022-09-20T20:20:36.647Z,39.70
2022-09-20T20:23:47.895Z,25.47
2022-09-20T20:26:24.725Z,57.73
2022-09-20T20:28:55.221Z,57.53
2022-09-20T20:31:25.719Z,49.37
2022-09-20T20:33:56.379Z,37.97
2022-09-20T20:36:26.340Z,25.00
2022-09-20T20:38:59.080Z,30.77
2022-09-20T20:41:31.877Z,30.70
2022-09-20T20:44:06.160Z,24.87
2022-09-20T20:46:37.132Z,28.00
2022-09-20T20:49:07.759Z,33.23
2022-09-20T20:51:38.296Z,19.57
2022-09-20T20:54:10.817Z,20.60
2022-09-20T20:56:40.745Z,18.30
2022-09-20T20:59:10.690Z,20.77
2022-09-20T21:01:45.772Z,19.00
2022-09-20T21:04:16.984Z,17.70
2022-09-20T21:06:47.444Z,22.80
2022-09-20T21:09:20.147Z,26.37
2022-09-20T21:11:50.087Z,22.40
2022-09-20T21:14:20.028Z,19.00
2022-09-20T21:16:50.161Z,19.80
2022-09-20T21:19:22.428Z,26.10
2022-09-20T21:21:52.423Z,17.87
2022-09-20T21:24:24.929Z,28.27
2022-09-20T21:26:55.370Z,18.57
2022-09-20T21:29:25.290Z,19.53
2022-09-20T21:31:55.525Z,18.90
2022-09-20T21:34:25.442Z,16.30
2022-09-20T21:36:55.401Z,17.63
2022-09-20T21:39:28.015Z,24.13
2022-09-20T21:41:58.313Z,20.20
2022-09-20T21:44:28.690Z,20.20
2022-09-20T21:46:58.706Z,19.33
2022-09-20T21:49:28.627Z,23.60
2022-09-20T21:51:58.745Z,19.47
2022-09-20T21:54:31.349Z,29.17
2022-09-20T21:57:01.614Z,19.23
2022-09-20T21:59:31.581Z,18.40
2022-09-20T22:02:01.856Z,22.33
2022-09-20T22:04:31.954Z,19.83
2022-09-20T22:07:04.027Z,18.10
2022-09-20T22:09:36.904Z,18.90
2022-09-20T22:12:07.333Z,20.30
2022-09-20T22:14:39.956Z,24.03
2022-09-20T22:17:10.576Z,18.83
2022-09-20T22:19:40.540Z,14.07
2022-09-20T22:22:10.963Z,19.83
2022-09-20T22:24:43.690Z,17.43
2022-09-20T22:27:13.829Z,18.33
2022-09-20T22:29:43.935Z,18.87
2022-09-20T22:32:13.938Z,16.10
2022-09-20T22:34:44.031Z,19.87
2022-09-20T22:37:14.226Z,21.10
2022-09-20T22:39:46.783Z,14.73
2022-09-20T22:42:16.779Z,18.90
2022-09-20T22:44:46.805Z,22.03
2022-09-20T22:47:16.815Z,13.90
2022-09-20T22:49:46.848Z,17.20
2022-09-20T22:52:16.973Z,17.33
2022-09-20T22:54:49.460Z,20.97
2022-09-20T22:57:20.147Z,19.23
2022-09-20T22:59:50.123Z,17.63
2022-09-20T23:02:20.050Z,20.70
2022-09-20T23:04:50.030Z,21.93
2022-09-20T23:07:20.221Z,31.00
2022-09-20T23:09:52.722Z,18.97
2022-09-20T23:12:22.668Z,19.00
2022-09-20T23:14:52.573Z,21.83
2022-09-20T23:17:22.547Z,18.20
2022-09-20T23:19:52.919Z,21.57
2022-09-20T23:22:22.950Z,19.63
2022-09-20T23:24:55.514Z,17.40
2022-09-20T23:27:25.703Z,21.80
2022-09-20T23:29:55.654Z,16.33
2022-09-20T23:32:25.918Z,18.17
2022-09-20T23:34:56.282Z,19.80
2022-09-20T23:37:26.388Z,16.17
2022-09-20T23:39:58.973Z,18.17
2022-09-20T23:42:28.965Z,23.20
2022-09-20T23:44:58.994Z,18.70
2022-09-20T23:47:28.968Z,20.90
2022-09-20T23:49:58.960Z,18.77
2022-09-20T23:52:28.895Z,17.73
2022-09-20T23:55:01.408Z,20.10
2022-09-20T23:57:31.446Z,18.27
